createdAt,value
2022-10-01T00:00:38.997Z,989.53
2022-10-01T00:01:38.979Z,989.49
2022-10-01T00:02:39.142Z,989.50
2022-10-01T00:03:38.979Z,989.47
2022-10-01T00:04:38.954Z,989.41
2022-10-01T00:05:39.058Z,989.41
2022-10-01T00:06:39.019Z,989.37
2022-10-01T00:07:39.113Z,989.38
2022-10-01T00:08:39.010Z,989.32
2022-10-01T00:09:39.030Z,989.32
2022-10-01T00:10:38.992Z,989.32
2022-10-01T00:11:39.097Z,989.34
2022-10-01T00:12:39.004Z,989.29
2022-10-01T00:13:38.960Z,989.30
2022-10-01T00:14:39.050Z,989.27
2022-10-01T00:15:39.047Z,989.29
2022-10-01T00:16:39.170Z,989.22
2022-10-01T00:17:38.959Z,989.21
2022-10-01T00:18:38.852Z,989.21
2022-10-01T00:19:38.857Z,989.27
2022-10-01T00:20:38.981Z,989.15
2022-10-01T00:21:38.858Z,989.17
2022-10-01T00:22:38.890Z,989.17
2022-10-01T00:23:38.827Z,989.19
2022-10-01T00:24:38.908Z,989.16
2022-10-01T00:25:38.884Z,989.09
2022-10-01T00:26:38.862Z,989.06
2022-10-01T00:27:38.928Z,989.04
2022-10-01T00:28:38.875Z,989.03
2022-10-01T00:29:38.901Z,989.03
2022-10-01T00:30:40.523Z,989.03
2022-10-01T00:31:40.086Z,989.04
2022-10-01T00:32:38.847Z,988.99
2022-10-01T00:33:38.931Z,989.02
2022-10-01T00:34:38.828Z,988.96
2022-10-01T00:35:38.829Z,988.92
2022-10-01T00:36:38.823Z,988.98
2022-10-01T00:37:38.805Z,988.87
2022-10-01T00:38:38.797Z,988.94
2022-10-01T00:39:38.696Z,988.88
2022-10-01T00:40:38.800Z,988.91
2022-10-01T00:41:38.821Z,988.80
2022-10-01T00:42:38.786Z,988.79
2022-10-01T00:43:38.964Z,988.83
2022-10-01T00:44:38.738Z,988.74
2022-10-01T00:45:38.808Z,988.83
2022-10-01T00:46:38.832Z,988.75
2022-10-01T00:47:38.744Z,988.72
2022-10-01T00:48:38.733Z,988.74
2022-10-01T00:49:38.786Z,988.69
2022-10-01T00:50:38.737Z,988.68
2022-10-01T00:51:38.707Z,988.64
2022-10-01T00:52:38.679Z,988.66
2022-10-01T00:53:38.598Z,988.71
2022-10-01T00:54:38.662Z,988.73
2022-10-01T00:55:38.629Z,988.60
2022-10-01T00:56:38.577Z,988.68
2022-10-01T00:57:38.600Z,988.75
2022-10-01T00:58:38.582Z,988.71
2022-10-01T00:59:39.868Z,988.72
2022-10-01T01:00:38.699Z,988.69
2022-10-01T01:01:38.763Z,988.64
2022-10-01T01:02:38.801Z,988.70
2022-10-01T01:03:38.638Z,988.67
2022-10-01T01:04:38.637Z,988.51
2022-10-01T01:05:38.674Z,988.57
2022-10-01T01:06:38.648Z,988.58
2022-10-01T01:07:38.639Z,988.58
2022-10-01T01:08:38.636Z,988.57
2022-10-01T01:09:39.667Z,988.59
2022-10-01T01:10:38.582Z,988.56
2022-10-01T01:11:38.549Z,988.56
2022-10-01T01:12:38.576Z,988.48
2022-10-01T01:13:38.470Z,988.57
2022-10-01T01:14:38.451Z,988.57
2022-10-01T01:15:38.521Z,988.54
2022-10-01T01:16:38.486Z,988.48
2022-10-01T01:17:38.491Z,988.46
2022-10-01T01:18:38.430Z,988.46
2022-10-01T01:19:38.464Z,988.48
2022-10-01T01:20:38.453Z,988.39
2022-10-01T01:21:38.491Z,988.41
2022-10-01T01:22:38.514Z,988.43
2022-10-01T01:23:38.507Z,988.41
2022-10-01T01:24:38.464Z,988.37
2022-10-01T01:25:38.489Z,988.40
2022-10-01T01:26:38.534Z,988.40
2022-10-01T01:27:38.592Z,988.33
2022-10-01T01:28:38.520Z,988.39
2022-10-01T01:29:38.502Z,988.26
2022-10-01T01:30:38.465Z,988.39
2022-10-01T01:31:38.641Z,988.26
2022-10-01T01:32:38.504Z,988.24
2022-10-01T01:33:38.411Z,988.23
2022-10-01T01:34:38.406Z,988.21
2022-10-01T01:35:38.313Z,988.15
2022-10-01T01:36:38.324Z,988.11
2022-10-01T01:37:38.412Z,988.14
2022-10-01T01:38:38.360Z,988.16
2022-10-01T01:39:38.364Z,988.11
2022-10-01T01:40:38.378Z,988.11
2022-10-01T01:41:38.393Z,988.03
2022-10-01T01:42:38.362Z,988.08
2022-10-01T01:43:38.388Z,988.03
2022-10-01T01:44:38.406Z,987.95
2022-10-01T01:45:38.400Z,988.00
2022-10-01T01:46:38.362Z,988.03
2022-10-01T01:47:38.333Z,988.03
2022-10-01T01:48:38.379Z,987.94
2022-10-01T01:49:38.371Z,988.01
2022-10-01T01:50:38.352Z,988.01
2022-10-01T01:51:38.223Z,988.02
2022-10-01T01:52:38.182Z,987.98
2022-10-01T01:53:38.304Z,987.98
2022-10-01T01:54:38.209Z,987.98
2022-10-01T01:55:38.247Z,988.01
2022-10-01T01:56:38.212Z,988.08
2022-10-01T01:57:38.286Z,988.04
2022-10-01T01:58:38.241Z,988.02
2022-10-01T01:59:38.280Z,988.10
2022-10-01T02:00:38.243Z,987.88
2022-10-01T02:01:38.567Z,987.96
2022-10-01T02:02:38.293Z,987.97
2022-10-01T02:03:38.275Z,987.99
2022-10-01T02:04:38.205Z,988.02
2022-10-01T02:05:38.605Z,987.97
2022-10-01T02:06:38.203Z,988.01
2022-10-01T02:07:38.148Z,988.03
2022-10-01T02:08:38.189Z,988.04
2022-10-01T02:09:38.094Z,987.97
2022-10-01T02:10:38.113Z,988.00
2022-10-01T02:11:38.202Z,988.02
2022-10-01T02:12:38.099Z,988.06
2022-10-01T02:13:39.200Z,988.04
2022-10-01T02:14:38.108Z,987.97
2022-10-01T02:15:38.181Z,988.05
2022-10-01T02:16:38.110Z,988.02
2022-10-01T02:17:38.195Z,988.02
2022-10-01T02:18:38.169Z,988.03
2022-10-01T02:19:38.061Z,987.90
2022-10-01T02:20:38.089Z,988.00
2022-10-01T02:21:38.067Z,987.94
2022-10-01T02:22:38.069Z,988.00
2022-10-01T02:23:38.067Z,987.97
2022-10-01T02:24:38.068Z,987.94
2022-10-01T02:25:38.006Z,987.97
2022-10-01T02:26:37.999Z,988.01
2022-10-01T02:27:37.968Z,987.97
2022-10-01T02:28:38.020Z,987.95
2022-10-01T02:29:37.978Z,987.96
2022-10-01T02:30:37.990Z,987.94
2022-10-01T02:31:38.575Z,987.89
2022-10-01T02:32:38.002Z,987.90
2022-10-01T02:33:38.006Z,987.91
2022-10-01T02:34:38.037Z,987.90
2022-10-01T02:35:37.959Z,987.87
2022-10-01T02:36:38.028Z,987.89
2022-10-01T02:37:37.992Z,987.93
2022-10-01T02:38:38.026Z,987.78
2022-10-01T02:39:37.977Z,987.89
2022-10-01T02:40:37.945Z,987.88
2022-10-01T02:41:37.927Z,987.81
2022-10-01T02:42:37.972Z,987.86
2022-10-01T02:43:42.608Z,987.75
2022-10-01T02:44:39.970Z,987.85
2022-10-01T02:45:37.892Z,987.74
2022-10-01T02:46:37.843Z,987.69
2022-10-01T02:47:37.897Z,987.69
2022-10-01T02:48:37.908Z,987.73
2022-10-01T02:49:37.799Z,987.64
2022-10-01T02:50:37.834Z,987.67
2022-10-01T02:51:37.842Z,987.58
2022-10-01T02:52:37.812Z,987.61
2022-10-01T02:53:37.871Z,987.54
2022-10-01T02:54:37.896Z,987.52
2022-10-01T02:55:37.936Z,987.50
2022-10-01T02:56:45.947Z,987.52
2022-10-01T02:57:38.778Z,987.46
2022-10-01T02:58:37.860Z,987.46
2022-10-01T02:59:37.905Z,987.39
2022-10-01T03:00:37.852Z,987.42
2022-10-01T03:01:38.123Z,987.36
2022-10-01T03:02:37.847Z,987.31
2022-10-01T03:03:37.857Z,987.39
2022-10-01T03:04:37.812Z,987.27
2022-10-01T03:05:37.741Z,987.29
2022-10-01T03:06:37.691Z,987.29
2022-10-01T03:07:37.680Z,987.23
2022-10-01T03:08:37.762Z,987.20
2022-10-01T03:09:37.674Z,987.24
2022-10-01T03:10:37.750Z,987.22
2022-10-01T03:11:37.663Z,987.21
2022-10-01T03:12:38.655Z,987.17
2022-10-01T03:13:37.679Z,987.14
2022-10-01T03:14:37.708Z,987.00
2022-10-01T03:15:37.846Z,986.97
2022-10-01T03:16:37.677Z,987.01
2022-10-01T03:17:37.793Z,986.98
2022-10-01T03:18:37.699Z,987.02
2022-10-01T03:19:37.679Z,986.96
2022-10-01T03:20:37.713Z,987.00
2022-10-01T03:21:37.677Z,986.96
2022-10-01T03:22:37.729Z,986.94
2022-10-01T03:23:37.647Z,986.82
2022-10-01T03:24:37.709Z,986.79
2022-10-01T03:25:37.616Z,986.82
2022-10-01T03:26:37.691Z,986.84
2022-10-01T03:27:37.563Z,986.79
2022-10-01T03:28:37.531Z,986.75
2022-10-01T03:29:37.567Z,986.68
2022-10-01T03:30:37.535Z,986.68
2022-10-01T03:31:37.885Z,986.60
2022-10-01T03:32:37.543Z,986.66
2022-10-01T03:33:37.494Z,986.56
2022-10-01T03:34:37.465Z,986.61
2022-10-01T03:35:37.596Z,986.67
2022-10-01T03:36:37.550Z,986.58
2022-10-01T03:37:37.609Z,986.65
2022-10-01T03:38:37.547Z,986.57
2022-10-01T03:39:37.534Z,986.68
2022-10-01T03:40:37.520Z,986.60
2022-10-01T03:41:37.567Z,986.61
2022-10-01T03:42:37.629Z,986.50
2022-10-01T03:43:37.539Z,986.54
2022-10-01T03:44:37.508Z,986.48
2022-10-01T03:45:37.579Z,986.54
2022-10-01T03:46:37.397Z,986.47
2022-10-01T03:47:37.390Z,986.45
2022-10-01T03:48:37.432Z,986.50
2022-10-01T03:49:37.476Z,986.55
2022-10-01T03:50:37.416Z,986.47
2022-10-01T03:51:37.746Z,986.48
2022-10-01T03:52:37.372Z,986.49
2022-10-01T03:53:37.487Z,986.45
2022-10-01T03:54:37.408Z,986.42
2022-10-01T03:55:37.398Z,986.45
2022-10-01T03:56:37.418Z,986.43
2022-10-01T03:57:37.391Z,986.38
2022-10-01T03:58:37.426Z,986.44
2022-10-01T03:59:37.429Z,986.53
2022-10-01T04:00:37.423Z,986.47
2022-10-01T04:01:37.810Z,986.55
2022-10-01T04:02:37.515Z,986.49
2022-10-01T04:03:37.257Z,986.49
2022-10-01T04:04:37.287Z,986.54
2022-10-01T04:05:37.259Z,986.53
2022-10-01T04:06:37.255Z,986.38
2022-10-01T04:07:37.276Z,986.49
2022-10-01T04:08:37.248Z,986.52
2022-10-01T04:09:37.298Z,986.52
2022-10-01T04:10:37.246Z,986.52
2022-10-01T04:11:37.454Z,986.47
2022-10-01T04:12:37.200Z,986.53
2022-10-01T04:13:37.323Z,986.44
2022-10-01T04:14:37.283Z,986.48
2022-10-01T04:15:37.697Z,986.42
2022-10-01T04:16:37.357Z,986.45
2022-10-01T04:17:37.261Z,986.42
2022-10-01T04:18:37.305Z,986.43
2022-10-01T04:19:37.316Z,986.41
2022-10-01T04:20:37.307Z,986.41
2022-10-01T04:21:37.671Z,986.41
2022-10-01T04:22:58.246Z,986.37
2022-10-01T04:23:37.131Z,986.40
2022-10-01T04:24:38.181Z,986.39
2022-10-01T04:25:37.232Z,986.30
2022-10-01T04:26:37.142Z,986.30
2022-10-01T04:27:37.193Z,986.35
2022-10-01T04:28:37.267Z,986.30
2022-10-01T04:29:40.204Z,986.37
2022-10-01T04:30:38.151Z,986.38
2022-10-01T04:31:37.454Z,986.29
2022-10-01T04:32:37.070Z,986.29
2022-10-01T04:33:37.155Z,986.18
2022-10-01T04:34:37.068Z,986.27
2022-10-01T04:35:37.068Z,986.29
2022-10-01T04:36:37.027Z,986.30
2022-10-01T04:37:37.036Z,986.31
2022-10-01T04:38:37.066Z,986.29
2022-10-01T04:39:37.085Z,986.26
2022-10-01T04:40:37.113Z,986.12
2022-10-01T04:41:37.381Z,986.23
2022-10-01T04:42:37.129Z,986.24
2022-10-01T04:43:37.093Z,986.26
2022-10-01T04:44:36.960Z,986.12
2022-10-01T04:45:37.161Z,986.25
2022-10-01T04:46:37.102Z,986.19
2022-10-01T04:47:37.771Z,986.14
2022-10-01T04:48:38.075Z,986.06
2022-10-01T04:49:37.115Z,986.05
2022-10-01T04:50:36.923Z,985.99
2022-10-01T04:51:37.273Z,986.04
2022-10-01T04:52:37.108Z,985.90
2022-10-01T04:53:36.916Z,985.95
2022-10-01T04:54:37.000Z,985.92
2022-10-01T04:56:14.110Z,985.92
2022-10-01T04:56:37.879Z,985.83
2022-10-01T04:57:37.026Z,985.88
2022-10-01T04:58:36.868Z,985.74
2022-10-01T04:59:36.906Z,985.92
2022-10-01T05:00:36.915Z,985.92
2022-10-01T05:01:37.428Z,985.91
2022-10-01T05:02:36.887Z,985.87
2022-10-01T05:03:36.848Z,985.93
2022-10-01T05:04:36.834Z,985.97
2022-10-01T05:05:36.846Z,985.99
2022-10-01T05:06:36.806Z,985.91
2022-10-01T05:07:36.937Z,985.97
2022-10-01T05:08:36.885Z,985.94
2022-10-01T05:09:36.931Z,985.96
2022-10-01T05:10:36.943Z,985.94
2022-10-01T05:11:37.033Z,985.86
2022-10-01T05:12:36.882Z,985.88
2022-10-01T05:13:36.925Z,985.87
2022-10-01T05:14:36.846Z,985.80
2022-10-01T05:15:36.995Z,985.83
2022-10-01T05:16:36.841Z,985.83
2022-10-01T05:17:36.747Z,985.75
2022-10-01T05:18:37.009Z,985.69
2022-10-01T05:19:36.725Z,985.59
2022-10-01T05:20:36.760Z,985.79
2022-10-01T05:21:37.237Z,985.80
2022-10-01T05:22:36.712Z,985.81
2022-10-01T05:23:36.705Z,985.76
2022-10-01T05:24:36.682Z,985.75
2022-10-01T05:25:36.679Z,985.73
2022-10-01T05:26:36.707Z,985.70
2022-10-01T05:27:36.665Z,985.74
2022-10-01T05:28:36.731Z,985.81
2022-10-01T05:29:36.665Z,985.61
2022-10-01T05:30:36.843Z,985.69
2022-10-01T05:31:37.111Z,985.50
2022-10-01T05:32:36.641Z,985.44
2022-10-01T05:33:36.770Z,985.45
2022-10-01T05:34:36.764Z,985.53
2022-10-01T05:35:36.630Z,985.53
2022-10-01T05:36:36.726Z,985.50
2022-10-01T05:37:36.737Z,985.54
2022-10-01T05:38:36.599Z,985.43
2022-10-01T05:39:36.684Z,985.41
2022-10-01T05:40:36.604Z,985.43
2022-10-01T05:41:36.873Z,985.33
2022-10-01T05:42:36.604Z,985.40
2022-10-01T05:43:36.573Z,985.38
2022-10-01T05:44:36.533Z,985.27
2022-10-01T05:45:36.559Z,985.32
2022-10-01T05:46:36.536Z,985.29
2022-10-01T05:47:36.520Z,985.28
2022-10-01T05:48:36.556Z,985.19
2022-10-01T05:49:36.529Z,985.19
2022-10-01T05:50:36.589Z,985.22
2022-10-01T05:51:36.850Z,985.23
2022-10-01T05:52:36.561Z,985.15
2022-10-01T05:53:36.630Z,985.09
2022-10-01T05:54:36.505Z,985.06
2022-10-01T05:55:36.579Z,985.09
2022-10-01T05:56:36.551Z,984.99
2022-10-01T05:57:36.449Z,984.94
2022-10-01T05:58:36.544Z,985.00
2022-10-01T05:59:36.578Z,985.01
2022-10-01T06:00:36.514Z,985.11
2022-10-01T06:01:36.876Z,985.08
2022-10-01T06:02:36.646Z,985.01
2022-10-01T06:03:36.483Z,984.97
2022-10-01T06:04:41.025Z,984.96
2022-10-01T06:05:37.381Z,984.92
2022-10-01T06:06:36.385Z,984.91
2022-10-01T06:07:36.377Z,984.97
2022-10-01T06:08:36.487Z,984.78
2022-10-01T06:09:36.365Z,984.85
2022-10-01T06:10:36.548Z,984.65
2022-10-01T06:11:36.841Z,984.68
2022-10-01T06:12:36.358Z,984.60
2022-10-01T06:13:36.439Z,984.67
2022-10-01T06:14:36.444Z,984.50
2022-10-01T06:15:36.381Z,984.57
2022-10-01T06:16:36.443Z,984.45
2022-10-01T06:17:36.387Z,984.50
2022-10-01T06:18:36.287Z,984.48
2022-10-01T06:19:36.389Z,984.41
2022-10-01T06:20:36.447Z,984.28
2022-10-01T06:21:36.742Z,984.34
2022-10-01T06:22:36.461Z,984.24
2022-10-01T06:23:36.426Z,984.34
2022-10-01T06:24:36.261Z,984.20
2022-10-01T06:25:36.290Z,984.13
2022-10-01T06:26:36.650Z,984.13
2022-10-01T06:27:36.226Z,984.13
2022-10-01T06:28:37.397Z,984.14
2022-10-01T06:29:36.215Z,984.06
2022-10-01T06:30:36.256Z,984.12
2022-10-01T06:31:36.706Z,984.12
2022-10-01T06:32:36.285Z,984.03
2022-10-01T06:33:36.225Z,983.98
2022-10-01T06:34:36.345Z,984.04
2022-10-01T06:35:36.288Z,984.04
2022-10-01T06:36:36.162Z,984.14
2022-10-01T06:37:36.290Z,984.00
2022-10-01T06:38:36.251Z,984.02
2022-10-01T06:39:36.173Z,984.06
2022-10-01T06:40:36.308Z,984.01
2022-10-01T06:41:36.574Z,983.94
2022-10-01T06:42:36.199Z,983.99
2022-10-01T06:43:36.250Z,983.97
2022-10-01T06:44:36.198Z,984.01
2022-10-01T06:45:36.272Z,983.99
2022-10-01T06:46:36.207Z,983.96
2022-10-01T06:47:36.122Z,984.10
2022-10-01T06:48:36.139Z,984.16
2022-10-01T06:49:36.118Z,984.09
2022-10-01T06:50:36.154Z,984.17
2022-10-01T06:51:36.408Z,984.22
2022-10-01T06:52:36.080Z,984.14
2022-10-01T06:53:36.114Z,984.33
2022-10-01T06:54:36.127Z,984.32
2022-10-01T06:55:36.165Z,984.36
2022-10-01T06:56:37.130Z,984.38
2022-10-01T06:57:36.056Z,984.39
2022-10-01T06:58:36.130Z,984.36
2022-10-01T06:59:36.219Z,984.24
2022-10-01T07:00:36.009Z,984.12
2022-10-01T07:01:36.493Z,984.22
2022-10-01T07:02:36.149Z,984.27
2022-10-01T07:03:35.999Z,984.42
2022-10-01T07:04:36.136Z,984.43
2022-10-01T07:05:36.036Z,984.45
2022-10-01T07:06:36.047Z,984.46
2022-10-01T07:07:36.049Z,984.64
2022-10-01T07:08:36.034Z,984.45
2022-10-01T07:09:35.990Z,984.34
2022-10-01T07:10:36.048Z,984.37
2022-10-01T07:11:36.317Z,984.42
2022-10-01T07:12:35.969Z,984.41
2022-10-01T07:13:35.922Z,984.22
2022-10-01T07:14:35.874Z,984.26
2022-10-01T07:15:35.938Z,984.22
2022-10-01T07:16:35.987Z,984.17
2022-10-01T07:17:35.894Z,984.07
2022-10-01T07:18:35.852Z,984.08
2022-10-01T07:19:36.896Z,984.13
2022-10-01T07:20:35.889Z,984.17
2022-10-01T07:21:36.536Z,984.16
2022-10-01T07:22:35.886Z,984.09
2022-10-01T07:23:35.945Z,984.03
2022-10-01T07:24:36.013Z,983.91
2022-10-01T07:25:35.968Z,984.01
2022-10-01T07:26:36.135Z,983.97
2022-10-01T07:27:35.894Z,983.82
2022-10-01T07:28:35.927Z,983.83
2022-10-01T07:29:36.008Z,983.89
2022-10-01T07:30:35.832Z,984.02
2022-10-01T07:31:36.232Z,983.98
2022-10-01T07:32:35.901Z,984.11
2022-10-01T07:33:35.785Z,984.14
2022-10-01T07:34:35.838Z,984.19
2022-10-01T07:35:35.843Z,984.15
2022-10-01T07:36:35.781Z,984.14
2022-10-01T07:37:35.891Z,984.35
2022-10-01T07:38:35.853Z,984.36
2022-10-01T07:39:35.752Z,984.38
2022-10-01T07:40:35.916Z,984.25
2022-10-01T07:41:36.143Z,984.19
2022-10-01T07:42:35.741Z,984.29
2022-10-01T07:43:35.775Z,984.27
2022-10-01T07:44:35.734Z,984.32
2022-10-01T07:45:35.744Z,984.28
2022-10-01T07:46:35.722Z,984.17
2022-10-01T07:47:35.716Z,984.23
2022-10-01T07:48:35.707Z,984.20
2022-10-01T07:49:36.975Z,984.15
2022-10-01T07:50:35.801Z,984.14
2022-10-01T07:51:36.082Z,984.09
2022-10-01T07:52:35.751Z,984.14
2022-10-01T07:53:35.801Z,983.96
2022-10-01T07:54:35.647Z,984.04
2022-10-01T07:55:35.600Z,984.13
2022-10-01T07:56:35.737Z,984.09
2022-10-01T07:57:35.729Z,984.00
2022-10-01T07:58:35.726Z,984.12
2022-10-01T07:59:35.771Z,984.04
2022-10-01T08:00:35.706Z,984.10
2022-10-01T08:01:36.083Z,984.08
2022-10-01T08:02:35.710Z,983.96
2022-10-01T08:03:36.618Z,984.15
2022-10-01T08:04:35.636Z,984.19
2022-10-01T08:05:35.681Z,984.15
2022-10-01T08:06:35.658Z,984.06
2022-10-01T08:07:35.674Z,984.09
2022-10-01T08:08:35.614Z,984.13
2022-10-01T08:09:35.601Z,984.07
2022-10-01T08:10:35.696Z,984.11
2022-10-01T08:11:36.042Z,984.09
2022-10-01T08:12:35.616Z,984.07
2022-10-01T08:13:35.605Z,984.19
2022-10-01T08:14:35.585Z,984.23
2022-10-01T08:15:35.608Z,984.22
2022-10-01T08:16:35.614Z,984.34
2022-10-01T08:17:35.582Z,984.37
2022-10-01T08:18:35.586Z,984.29
2022-10-01T08:19:35.581Z,984.30
2022-10-01T08:20:35.454Z,984.37
2022-10-01T08:21:35.899Z,984.37
2022-10-01T08:22:39.763Z,984.28
2022-10-01T08:23:37.453Z,984.37
2022-10-01T08:24:35.462Z,984.30
2022-10-01T08:25:35.426Z,984.20
2022-10-01T08:26:35.841Z,984.37
2022-10-01T08:27:35.410Z,984.43
2022-10-01T08:28:35.464Z,984.45
2022-10-01T08:29:35.482Z,984.39
2022-10-01T08:30:35.546Z,984.51
2022-10-01T08:31:35.786Z,984.58
2022-10-01T08:32:35.537Z,984.64
2022-10-01T08:33:35.509Z,984.48
2022-10-01T08:34:35.485Z,984.59
2022-10-01T08:35:35.446Z,984.59
2022-10-01T08:36:35.437Z,984.55
2022-10-01T08:37:35.486Z,984.58
2022-10-01T08:38:35.487Z,984.56
2022-10-01T08:39:35.436Z,984.60
2022-10-01T08:40:35.434Z,984.64
2022-10-01T08:41:36.184Z,984.58
2022-10-01T08:42:35.280Z,984.58
2022-10-01T08:43:35.330Z,984.72
2022-10-01T08:44:35.294Z,984.72
2022-10-01T08:45:35.494Z,984.63
2022-10-01T08:46:35.302Z,984.70
2022-10-01T08:47:35.253Z,984.71
2022-10-01T08:48:35.415Z,984.67
2022-10-01T08:49:35.352Z,984.71
2022-10-01T08:50:35.327Z,984.75
2022-10-01T08:51:35.629Z,984.84
2022-10-01T08:52:35.328Z,984.68
2022-10-01T08:53:35.329Z,984.71
2022-10-01T08:54:35.377Z,984.83
2022-10-01T08:55:35.452Z,984.72
2022-10-01T08:56:35.277Z,984.84
2022-10-01T08:57:35.335Z,984.78
2022-10-01T08:58:35.292Z,984.80
2022-10-01T08:59:35.360Z,984.76
2022-10-01T09:00:35.248Z,984.73
2022-10-01T09:01:35.494Z,984.69
2022-10-01T09:02:35.204Z,984.70
2022-10-01T09:03:35.141Z,984.61
2022-10-01T09:04:35.323Z,984.57
2022-10-01T09:05:35.349Z,984.69
2022-10-01T09:06:35.317Z,984.75
2022-10-01T09:07:35.238Z,984.62
2022-10-01T09:08:35.284Z,984.66
2022-10-01T09:09:35.231Z,984.65
2022-10-01T09:10:35.307Z,984.66
2022-10-01T09:11:35.476Z,984.53
2022-10-01T09:12:35.195Z,984.54
2022-10-01T09:13:35.169Z,984.55
2022-10-01T09:14:35.193Z,984.56
2022-10-01T09:15:35.185Z,984.63
2022-10-01T09:16:35.279Z,984.62
2022-10-01T09:17:35.155Z,984.54
2022-10-01T09:18:35.569Z,984.50
2022-10-01T09:19:35.129Z,984.67
2022-10-01T09:20:35.120Z,984.55
2022-10-01T09:21:35.454Z,984.54
2022-10-01T09:22:35.032Z,984.57
2022-10-01T09:23:35.152Z,984.68
2022-10-01T09:24:35.142Z,984.60
2022-10-01T09:25:35.158Z,984.66
2022-10-01T09:26:35.110Z,984.64
2022-10-01T09:27:35.432Z,984.63
2022-10-01T09:28:35.119Z,984.60
2022-10-01T09:29:35.155Z,984.62
2022-10-01T09:30:35.131Z,984.59
2022-10-01T09:31:35.356Z,984.53
2022-10-01T09:32:35.197Z,984.56
2022-10-01T09:33:35.110Z,984.53
2022-10-01T09:34:35.076Z,984.60
2022-10-01T09:35:35.041Z,984.58
2022-10-01T09:36:35.106Z,984.65
2022-10-01T09:37:35.102Z,984.69
2022-10-01T09:38:35.087Z,984.68
2022-10-01T09:39:34.946Z,984.68
2022-10-01T09:40:34.933Z,984.75
2022-10-01T09:41:35.215Z,984.63
2022-10-01T09:42:34.911Z,984.71
2022-10-01T09:43:35.150Z,984.74
2022-10-01T09:44:35.015Z,984.64
2022-10-01T09:45:35.247Z,984.69
2022-10-01T09:46:34.967Z,984.77
2022-10-01T09:47:35.330Z,984.80
2022-10-01T09:48:35.279Z,984.86
2022-10-01T09:49:34.957Z,984.77
2022-10-01T09:50:35.006Z,984.85
2022-10-01T09:51:39.387Z,984.94
2022-10-01T09:52:37.043Z,984.95
2022-10-01T09:53:35.062Z,984.90
2022-10-01T09:54:35.092Z,984.92
2022-10-01T09:55:34.819Z,984.96
2022-10-01T09:56:35.115Z,984.96
2022-10-01T09:57:34.768Z,984.95
2022-10-01T09:58:34.841Z,985.05
2022-10-01T09:59:34.934Z,985.01
2022-10-01T10:00:34.773Z,984.97
2022-10-01T10:01:35.229Z,984.90
2022-10-01T10:02:34.858Z,984.95
2022-10-01T10:03:34.995Z,984.86
2022-10-01T10:04:34.914Z,984.93
2022-10-01T10:05:34.928Z,984.87
2022-10-01T10:06:35.185Z,985.02
2022-10-01T10:07:34.935Z,984.92
2022-10-01T10:08:35.193Z,984.96
2022-10-01T10:09:34.838Z,984.89
2022-10-01T10:10:35.003Z,984.88
2022-10-01T10:11:35.332Z,984.85
2022-10-01T10:12:34.845Z,984.89
2022-10-01T10:13:34.799Z,984.87
2022-10-01T10:14:34.802Z,985.00
2022-10-01T10:15:34.843Z,985.01
2022-10-01T10:16:35.438Z,985.12
2022-10-01T10:17:34.752Z,985.02
2022-10-01T10:18:34.735Z,984.98
2022-10-01T10:19:34.733Z,985.03
2022-10-01T10:20:34.760Z,985.08
2022-10-01T10:21:34.679Z,984.90
2022-10-01T10:22:34.709Z,985.06
2022-10-01T10:23:34.642Z,984.91
2022-10-01T10:24:34.600Z,985.02
2022-10-01T10:25:34.681Z,984.99
2022-10-01T10:26:35.232Z,985.09
2022-10-01T10:27:34.625Z,985.05
2022-10-01T10:28:38.308Z,985.09
2022-10-01T10:29:35.690Z,985.08
2022-10-01T10:30:34.761Z,985.08
2022-10-01T10:31:34.776Z,985.06
2022-10-01T10:32:35.185Z,985.10
2022-10-01T10:33:34.893Z,985.12
2022-10-01T10:34:34.620Z,985.11
2022-10-01T10:35:34.666Z,985.07
2022-10-01T10:36:34.851Z,985.21
2022-10-01T10:37:34.629Z,985.17
2022-10-01T10:38:34.613Z,985.22
2022-10-01T10:39:34.641Z,985.22
2022-10-01T10:40:34.483Z,985.26
2022-10-01T10:41:34.701Z,985.25
2022-10-01T10:42:34.662Z,985.25
2022-10-01T10:43:34.589Z,985.27
2022-10-01T10:44:34.519Z,985.34
2022-10-01T10:45:34.588Z,985.32
2022-10-01T10:46:34.673Z,985.43
2022-10-01T10:47:34.670Z,985.38
2022-10-01T10:48:34.645Z,985.39
2022-10-01T10:49:34.514Z,985.36
2022-10-01T10:50:34.530Z,985.37
2022-10-01T10:51:34.652Z,985.38
2022-10-01T10:52:34.504Z,985.44
2022-10-01T10:53:34.512Z,985.38
2022-10-01T10:54:34.526Z,985.36
2022-10-01T10:55:34.398Z,985.39
2022-10-01T10:56:34.586Z,985.33
2022-10-01T10:57:34.386Z,985.31
2022-10-01T10:58:34.478Z,985.42
2022-10-01T10:59:34.516Z,985.45
2022-10-01T11:00:34.566Z,985.38
2022-10-01T11:01:34.649Z,985.47
2022-10-01T11:02:34.376Z,985.48
2022-10-01T11:03:34.448Z,985.48
2022-10-01T11:04:34.417Z,985.43
2022-10-01T11:05:35.096Z,985.44
2022-10-01T11:06:35.131Z,985.53
2022-10-01T11:07:34.535Z,985.39
2022-10-01T11:08:34.560Z,985.40
2022-10-01T11:09:34.358Z,985.37
2022-10-01T11:10:34.535Z,985.42
2022-10-01T11:11:34.491Z,985.44
2022-10-01T11:12:34.338Z,985.36
2022-10-01T11:13:34.494Z,985.35
2022-10-01T11:14:34.487Z,985.42
2022-10-01T11:15:34.455Z,985.36
2022-10-01T11:16:34.772Z,985.39
2022-10-01T11:17:34.240Z,985.42
2022-10-01T11:18:34.207Z,985.34
2022-10-01T11:19:34.322Z,985.32
2022-10-01T11:20:34.337Z,985.36
2022-10-01T11:21:34.347Z,985.39
2022-10-01T11:22:34.329Z,985.37
2022-10-01T11:23:34.480Z,985.40
2022-10-01T11:24:34.352Z,985.40
2022-10-01T11:25:34.253Z,985.41
2022-10-01T11:26:34.541Z,985.34
2022-10-01T11:27:34.265Z,985.36
2022-10-01T11:28:34.237Z,985.36
2022-10-01T11:29:34.265Z,985.31
2022-10-01T11:30:34.293Z,985.35
2022-10-01T11:31:34.282Z,985.37
2022-10-01T11:32:34.279Z,985.39
2022-10-01T11:33:34.169Z,985.36
2022-10-01T11:34:34.168Z,985.37
2022-10-01T11:35:34.165Z,985.34
2022-10-01T11:36:34.347Z,985.35
2022-10-01T11:37:34.400Z,985.42
2022-10-01T11:38:34.119Z,985.36
2022-10-01T11:39:34.189Z,985.40
2022-10-01T11:40:34.197Z,985.39
2022-10-01T11:41:34.174Z,985.34
2022-10-01T11:42:34.141Z,985.48
2022-10-01T11:43:34.222Z,985.42
2022-10-01T11:44:34.113Z,985.40
2022-10-01T11:45:35.184Z,985.46
2022-10-01T11:46:34.564Z,985.49
2022-10-01T11:47:34.144Z,985.43
2022-10-01T11:48:34.195Z,985.39
2022-10-01T11:49:34.147Z,985.39
2022-10-01T11:50:38.521Z,985.38
2022-10-01T11:51:36.250Z,985.38
2022-10-01T11:52:34.126Z,985.39
2022-10-01T11:53:34.117Z,985.40
2022-10-01T11:54:33.981Z,985.47
2022-10-01T11:55:33.979Z,985.41
2022-10-01T11:56:34.181Z,985.41
2022-10-01T11:57:33.961Z,985.43
2022-10-01T11:58:33.916Z,985.42
2022-10-01T11:59:33.957Z,985.52
2022-10-01T12:00:33.933Z,985.47
2022-10-01T12:01:33.949Z,985.44
2022-10-01T12:02:33.893Z,985.47
2022-10-01T12:03:34.017Z,985.43
2022-10-01T12:04:33.960Z,985.47
2022-10-01T12:05:34.259Z,985.50
2022-10-01T12:06:34.390Z,985.51
2022-10-01T12:07:34.949Z,985.41
2022-10-01T12:08:33.989Z,985.41
2022-10-01T12:09:34.006Z,985.42
2022-10-01T12:10:34.071Z,985.45
2022-10-01T12:11:33.941Z,985.38
2022-10-01T12:12:34.052Z,985.38
2022-10-01T12:13:34.479Z,985.37
2022-10-01T12:14:33.900Z,985.41
2022-10-01T12:15:33.910Z,985.42
2022-10-01T12:16:34.317Z,985.42
2022-10-01T12:17:33.918Z,985.45
2022-10-01T12:18:33.902Z,985.49
2022-10-01T12:19:33.971Z,985.50
2022-10-01T12:20:33.959Z,985.52
2022-10-01T12:21:34.288Z,985.52
2022-10-01T12:22:33.853Z,985.56
2022-10-01T12:23:33.907Z,985.54
2022-10-01T12:24:33.970Z,985.59
2022-10-01T12:25:34.054Z,985.59
2022-10-01T12:26:34.375Z,985.51
2022-10-01T12:27:34.133Z,985.56
2022-10-01T12:28:33.885Z,985.53